sensor_id;sensor_type;location;lat;lon;timestamp;pressure;altitude;pressure_sealevel;temperature;humidity
21401;BME280;18038;50.166;18.908;2023-04-01T00:00:44;96281.03;;;5.51;74.98
21401;BME280;18038;50.166;18.908;2023-04-01T00:03:52;96279.41;;;5.57;74.40
21401;BME280;18038;50.166;18.908;2023-04-01T00:06:59;96276.91;;;5.48;75.17
21401;BME280;18038;50.166;18.908;2023-04-01T00:10:09;96271.22;;;5.45;75.23
21401;BME280;18038;50.166;18.908;2023-04-01T00:13:20;96266.56;;;5.47;75.25
21401;BME280;18038;50.166;18.908;2023-04-01T00:16:29;96270.22;;;5.33;75.72
21401;BME280;18038;50.166;18.908;2023-04-01T00:19:35;96269.63;;;5.31;75.71
21401;BME280;18038;50.166;18.908;2023-04-01T00:22:42;96263.91;;;5.20;76.02
21401;BME280;18038;50.166;18.908;2023-04-01T00:25:49;96278.16;;;5.13;76.53
21401;BME280;18038;50.166;18.908;2023-04-01T00:28:59;96275.69;;;5.11;76.94
21401;BME280;18038;50.166;18.908;2023-04-01T00:32:05;96279.16;;;5.05;76.76
21401;BME280;18038;50.166;18.908;2023-04-01T00:35:12;96260.63;;;5.12;76.80
21401;BME280;18038;50.166;18.908;2023-04-01T00:38:19;96272.47;;;5.22;76.55
21401;BME280;18038;50.166;18.908;2023-04-01T00:41:28;96270.22;;;5.19;76.40
21401;BME280;18038;50.166;18.908;2023-04-01T00:44:38;96269.19;;;5.07;77.06
21401;BME280;18038;50.166;18.908;2023-04-01T00:47:46;96266.34;;;5.02;77.44
21401;BME280;18038;50.166;18.908;2023-04-01T00:50:57;96269.63;;;5.04;77.22
21401;BME280;18038;50.166;18.908;2023-04-01T00:54:10;96271.19;;;4.85;77.90
21401;BME280;18038;50.166;18.908;2023-04-01T00:57:23;96272.22;;;4.84;78.04
21401;BME280;18038;50.166;18.908;2023-04-01T01:00:38;96272.63;;;4.88;78.27
21401;BME280;18038;50.166;18.908;2023-04-01T01:03:44;96278.97;;;5.00;77.70
21401;BME280;18038;50.166;18.908;2023-04-01T01:07:00;96270.84;;;5.01;77.61
21401;BME280;18038;50.166;18.908;2023-04-01T01:10:20;96279.34;;;5.03;77.73
21401;BME280;18038;50.166;18.908;2023-04-01T01:13:41;96271.63;;;5.09;77.60
21401;BME280;18038;50.166;18.908;2023-04-01T01:17:09;96268.78;;;5.23;76.86
21401;BME280;18038;50.166;18.908;2023-04-01T01:20:40;96264.94;;;5.26;76.56
21401;BME280;18038;50.166;18.908;2023-04-01T01:28:07;96251.69;;;5.33;76.36
21401;BME280;18038;50.166;18.908;2023-04-01T01:31:33;96251.88;;;5.24;76.36
21401;BME280;18038;50.166;18.908;2023-04-01T01:34:53;96260.25;;;5.21;76.49
21401;BME280;18038;50.166;18.908;2023-04-01T01:38:16;96260.84;;;5.30;76.51
21401;BME280;18038;50.166;18.908;2023-04-01T01:41:33;96254.13;;;5.41;75.79
21401;BME280;18038;50.166;18.908;2023-04-01T01:44:45;96254.31;;;5.33;75.78
21401;BME280;18038;50.166;18.908;2023-04-01T01:47:56;96258.19;;;5.30;76.03
21401;BME280;18038;50.166;18.908;2023-04-01T01:51:07;96252.09;;;5.23;76.72
21401;BME280;18038;50.166;18.908;2023-04-01T01:54:15;96254.94;;;5.21;76.41
21401;BME280;18038;50.166;18.908;2023-04-01T01:57:26;96254.97;;;5.15;76.64
21401;BME280;18038;50.166;18.908;2023-04-01T02:00:40;96257.00;;;5.13;76.59
21401;BME280;18038;50.166;18.908;2023-04-01T02:03:53;96259.81;;;5.11;77.19
21401;BME280;18038;50.166;18.908;2023-04-01T02:07:10;96252.09;;;5.03;77.19
21401;BME280;18038;50.166;18.908;2023-04-01T02:10:25;96261.88;;;5.09;77.05
21401;BME280;18038;50.166;18.908;2023-04-01T02:13:39;96263.91;;;5.20;76.89
21401;BME280;18038;50.166;18.908;2023-04-01T02:16:55;96267.56;;;5.06;77.76
21401;BME280;18038;50.166;18.908;2023-04-01T02:20:09;96265.94;;;5.12;77.00
21401;BME280;18038;50.166;18.908;2023-04-01T02:23:23;96271.03;;;5.07;77.31
21401;BME280;18038;50.166;18.908;2023-04-01T02:26:30;96273.06;;;5.11;77.56
21401;BME280;18038;50.166;18.908;2023-04-01T02:29:37;96280.78;;;5.19;77.16
21401;BME280;18038;50.166;18.908;2023-04-01T02:32:46;96275.91;;;5.10;77.28
21401;BME280;18038;50.166;18.908;2023-04-01T02:35:54;96276.13;;;5.08;77.53
21401;BME280;18038;50.166;18.908;2023-04-01T02:39:05;96278.16;;;5.13;77.72
21401;BME280;18038;50.166;18.908;2023-04-01T02:42:13;96275.31;;;5.08;77.42
21401;BME280;18038;50.166;18.908;2023-04-01T02:45:20;96276.53;;;5.25;76.87
21401;BME280;18038;50.166;18.908;2023-04-01T02:48:27;96276.53;;;5.18;77.39
21401;BME280;18038;50.166;18.908;2023-04-01T02:51:34;96276.72;;;5.30;76.42
21401;BME280;18038;50.166;18.908;2023-04-01T02:54:43;96276.53;;;5.32;76.61
21401;BME280;18038;50.166;18.908;2023-04-01T02:57:51;96277.56;;;5.31;76.46
21401;BME280;18038;50.166;18.908;2023-04-01T03:00:58;96282.66;;;5.25;76.60
21401;BME280;18038;50.166;18.908;2023-04-01T03:04:06;96279.78;;;5.27;76.99
21401;BME280;18038;50.166;18.908;2023-04-01T03:07:12;96289.34;;;5.35;76.90
21401;BME280;18038;50.166;18.908;2023-04-01T03:10:22;96280.63;;;5.41;76.98
21401;BME280;18038;50.166;18.908;2023-04-01T03:13:28;96289.34;;;5.35;76.81
21401;BME280;18038;50.166;18.908;2023-04-01T03:16:35;96291.19;;;5.47;76.89
21401;BME280;18038;50.166;18.908;2023-04-01T03:19:41;96286.50;;;5.43;76.84
21401;BME280;18038;50.166;18.908;2023-04-01T03:22:49;96282.66;;;5.39;77.14
21401;BME280;18038;50.166;18.908;2023-04-01T03:25:58;96283.44;;;5.33;77.81
21401;BME280;18038;50.166;18.908;2023-04-01T03:29:07;96292.22;;;5.33;78.02
21401;BME280;18038;50.166;18.908;2023-04-01T03:32:13;96291.00;;;5.36;77.75
21401;BME280;18038;50.166;18.908;2023-04-01T03:35:20;96290.38;;;5.34;77.76
21401;BME280;18038;50.166;18.908;2023-04-01T03:38:26;96288.16;;;5.31;77.86
21401;BME280;18038;50.166;18.908;2023-04-01T03:41:36;96292.81;;;5.29;78.01
21401;BME280;18038;50.166;18.908;2023-04-01T03:44:43;96293.81;;;5.28;78.19
21401;BME280;18038;50.166;18.908;2023-04-01T03:47:57;96290.38;;;5.34;77.71
21401;BME280;18038;50.166;18.908;2023-04-01T03:51:29;96290.38;;;5.47;77.04
21401;BME280;18038;50.166;18.908;2023-04-01T03:54:36;96288.59;;;5.54;76.94
21401;BME280;18038;50.166;18.908;2023-04-01T03:57:45;96294.25;;;5.51;76.27
21401;BME280;18038;50.166;18.908;2023-04-01T04:00:54;96285.31;;;5.52;76.44
21401;BME280;18038;50.166;18.908;2023-04-01T04:04:00;96301.00;;;5.60;76.15
21401;BME280;18038;50.166;18.908;2023-04-01T04:07:08;96296.09;;;5.64;75.70
21401;BME280;18038;50.166;18.908;2023-04-01T04:10:55;96296.09;;;5.64;75.74
21401;BME280;18038;50.166;18.908;2023-04-01T04:14:05;96287.75;;;5.54;76.26
21401;BME280;18038;50.166;18.908;2023-04-01T04:17:12;96284.06;;;5.61;76.33
21401;BME280;18038;50.166;18.908;2023-04-01T04:20:20;96283.91;;;5.50;76.61
21401;BME280;18038;50.166;18.908;2023-04-01T04:23:27;96282.84;;;5.51;76.25
21401;BME280;18038;50.166;18.908;2023-04-01T04:26:37;96287.72;;;5.47;76.66
21401;BME280;18038;50.166;18.908;2023-04-01T04:29:46;96283.09;;;5.49;76.63
21401;BME280;18038;50.166;18.908;2023-04-01T04:32:53;96286.69;;;5.48;76.48
21401;BME280;18038;50.166;18.908;2023-04-01T04:36:00;96286.94;;;5.53;76.10
21401;BME280;18038;50.166;18.908;2023-04-01T04:39:08;96290.41;;;5.60;75.93
21401;BME280;18038;50.166;18.908;2023-04-01T04:42:16;96284.88;;;5.62;76.04
21401;BME280;18038;50.166;18.908;2023-04-01T04:45:26;96284.28;;;5.60;76.14
21401;BME280;18038;50.166;18.908;2023-04-01T04:48:33;96280.22;;;5.57;75.94
21401;BME280;18038;50.166;18.908;2023-04-01T04:51:41;96287.53;;;5.68;75.68
21401;BME280;18038;50.166;18.908;2023-04-01T04:54:49;96291.22;;;5.67;75.37
21401;BME280;18038;50.166;18.908;2023-04-01T04:57:56;96285.09;;;5.74;75.51
21401;BME280;18038;50.166;18.908;2023-04-01T05:01:09;96291.78;;;5.83;74.78
21401;BME280;18038;50.166;18.908;2023-04-01T05:04:26;96295.06;;;5.78;75.24
21401;BME280;18038;50.166;18.908;2023-04-01T05:07:37;96302.19;;;5.78;74.77
21401;BME280;18038;50.166;18.908;2023-04-01T05:10:45;96300.16;;;5.80;75.18
21401;BME280;18038;50.166;18.908;2023-04-01T05:14:02;96294.81;;;5.93;75.07
21401;BME280;18038;50.166;18.908;2023-04-01T05:17:13;96295.63;;;5.94;74.70
21401;BME280;18038;50.166;18.908;2023-04-01T05:20:19;96302.50;;;6.15;74.24
21401;BME280;18038;50.166;18.908;2023-04-01T05:23:26;96299.09;;;6.07;74.14
21401;BME280;18038;50.166;18.908;2023-04-01T05:26:33;96299.63;;;6.29;73.53
21401;BME280;18038;50.166;18.908;2023-04-01T05:29:41;96299.56;;;6.43;73.49
21401;BME280;18038;50.166;18.908;2023-04-01T05:33:16;96302.28;;;6.68;72.02
21401;BME280;18038;50.166;18.908;2023-04-01T05:36:23;96298.66;;;6.62;72.01
21401;BME280;18038;50.166;18.908;2023-04-01T05:39:36;96299.00;;;6.34;72.91
21401;BME280;18038;50.166;18.908;2023-04-01T05:42:44;96303.50;;;6.33;73.49
21401;BME280;18038;50.166;18.908;2023-04-01T05:45:51;96305.13;;;6.28;73.56
21401;BME280;18038;50.166;18.908;2023-04-01T05:49:15;96317.94;;;6.44;72.81
21401;BME280;18038;50.166;18.908;2023-04-01T05:52:22;96313.44;;;6.45;72.93
21401;BME280;18038;50.166;18.908;2023-04-01T05:55:29;96318.56;;;6.40;73.11
21401;BME280;18038;50.166;18.908;2023-04-01T05:58:39;96319.97;;;6.35;73.55
21401;BME280;18038;50.166;18.908;2023-04-01T06:01:46;96318.13;;;6.43;73.29
21401;BME280;18038;50.166;18.908;2023-04-01T06:05:03;96319.22;;;6.22;73.90
21401;BME280;18038;50.166;18.908;2023-04-01T06:08:25;96323.13;;;6.12;73.59
21401;BME280;18038;50.166;18.908;2023-04-01T06:11:41;96320.88;;;6.09;74.67
21401;BME280;18038;50.166;18.908;2023-04-01T06:15:11;96329.19;;;6.26;73.63
21401;BME280;18038;50.166;18.908;2023-04-01T06:18:46;96329.44;;;6.18;73.82
21401;BME280;18038;50.166;18.908;2023-04-01T06:26:29;96333.50;;;6.21;75.64
21401;BME280;18038;50.166;18.908;2023-04-01T06:33:46;96330.44;;;6.24;75.16
21401;BME280;18038;50.166;18.908;2023-04-01T06:37:26;96330.38;;;6.37;74.78
21401;BME280;18038;50.166;18.908;2023-04-01T06:41:07;96336.16;;;6.72;73.47
21401;BME280;18038;50.166;18.908;2023-04-01T06:44:51;96334.06;;;6.81;74.03
21401;BME280;18038;50.166;18.908;2023-04-01T06:48:59;96337.44;;;6.63;73.40
21401;BME280;18038;50.166;18.908;2023-04-01T06:53:01;96337.88;;;6.53;74.73
21401;BME280;18038;50.166;18.908;2023-04-01T06:56:40;96339.91;;;6.51;75.63
21401;BME280;18038;50.166;18.908;2023-04-01T07:00:00;96335.34;;;6.78;74.53
21401;BME280;18038;50.166;18.908;2023-04-01T07:03:20;96338.84;;;6.66;74.29
21401;BME280;18038;50.166;18.908;2023-04-01T07:06:35;96335.78;;;6.69;74.15
21401;BME280;18038;50.166;18.908;2023-04-01T07:09:52;96340.97;;;6.89;73.94
21401;BME280;18038;50.166;18.908;2023-04-01T07:13:13;96349.19;;;6.81;73.62
21401;BME280;18038;50.166;18.908;2023-04-01T07:16:35;96347.69;;;6.91;73.22
21401;BME280;18038;50.166;18.908;2023-04-01T07:19:52;96351.25;;;6.78;73.29
21401;BME280;18038;50.166;18.908;2023-04-01T07:23:15;96350.72;;;7.01;73.00
21401;BME280;18038;50.166;18.908;2023-04-01T07:26:42;96354.34;;;7.07;71.55
21401;BME280;18038;50.166;18.908;2023-04-01T07:29:56;96359.19;;;7.17;71.93
21401;BME280;18038;50.166;18.908;2023-04-01T07:33:09;96354.00;;;7.29;71.95
21401;BME280;18038;50.166;18.908;2023-04-01T07:36:29;96368.97;;;7.23;72.18
21401;BME280;18038;50.166;18.908;2023-04-01T07:39:55;96373.09;;;7.19;73.22
21401;BME280;18038;50.166;18.908;2023-04-01T07:43:48;96371.91;;;7.47;73.33
21401;BME280;18038;50.166;18.908;2023-04-01T07:47:18;96370.28;;;7.46;72.91
21401;BME280;18038;50.166;18.908;2023-04-01T07:50:41;96358.69;;;7.65;72.28
21401;BME280;18038;50.166;18.908;2023-04-01T07:54:07;96364.34;;;7.75;72.25
21401;BME280;18038;50.166;18.908;2023-04-01T07:57:23;96368.88;;;7.93;72.14
21401;BME280;18038;50.166;18.908;2023-04-01T08:00:47;96371.38;;;7.88;71.53
21401;BME280;18038;50.166;18.908;2023-04-01T08:04:35;96370.19;;;8.09;71.27
21401;BME280;18038;50.166;18.908;2023-04-01T08:08:07;96370.13;;;8.34;70.81
21401;BME280;18038;50.166;18.908;2023-04-01T08:11:59;96375.97;;;8.43;69.25
21401;BME280;18038;50.166;18.908;2023-04-01T08:15:43;96373.47;;;8.48;68.45
21401;BME280;18038;50.166;18.908;2023-04-01T08:19:25;96386.31;;;8.51;69.22
21401;BME280;18038;50.166;18.908;2023-04-01T08:23:01;96386.09;;;8.52;68.79
21401;BME280;18038;50.166;18.908;2023-04-01T08:26:26;96383.50;;;8.46;69.20
21401;BME280;18038;50.166;18.908;2023-04-01T08:29:46;96378.75;;;8.66;69.01
21401;BME280;18038;50.166;18.908;2023-04-01T08:33:11;96381.19;;;9.35;66.55
21401;BME280;18038;50.166;18.908;2023-04-01T08:36:31;96380.00;;;9.61;64.95
21401;BME280;18038;50.166;18.908;2023-04-01T08:39:54;96376.72;;;9.47;65.14
21401;BME280;18038;50.166;18.908;2023-04-01T08:43:11;96378.66;;;9.40;66.38
21401;BME280;18038;50.166;18.908;2023-04-01T08:50:50;96386.75;;;8.85;68.77
21401;BME280;18038;50.166;18.908;2023-04-01T08:54:31;96382.91;;;8.81;69.55
21401;BME280;18038;50.166;18.908;2023-04-01T09:02:27;96394.38;;;9.60;68.32
21401;BME280;18038;50.166;18.908;2023-04-01T09:06:20;96379.09;;;9.91;68.00
21401;BME280;18038;50.166;18.908;2023-04-01T09:14:21;96392.47;;;11.13;63.05
21401;BME280;18038;50.166;18.908;2023-04-01T09:22:04;96388.22;;;11.58;58.78
21401;BME280;18038;50.166;18.908;2023-04-01T09:25:44;96385.47;;;11.24;60.33
21401;BME280;18038;50.166;18.908;2023-04-01T09:29:12;96376.31;;;10.80;61.08
21401;BME280;18038;50.166;18.908;2023-04-01T09:32:53;96386.00;;;10.45;63.24
21401;BME280;18038;50.166;18.908;2023-04-01T09:36:41;96392.81;;;10.06;64.43
21401;BME280;18038;50.166;18.908;2023-04-01T09:43:52;96387.59;;;9.46;67.07
21401;BME280;18038;50.166;18.908;2023-04-01T09:47:33;96383.09;;;9.46;67.40
21401;BME280;18038;50.166;18.908;2023-04-01T09:51:06;96394.84;;;9.57;67.51
21401;BME280;18038;50.166;18.908;2023-04-01T09:54:42;96391.22;;;10.28;65.15
21401;BME280;18038;50.166;18.908;2023-04-01T09:58:33;96391.69;;;10.25;64.71
21401;BME280;18038;50.166;18.908;2023-04-01T10:02:43;96398.38;;;9.81;67.08
21401;BME280;18038;50.166;18.908;2023-04-01T10:06:43;96402.97;;;9.62;68.94
21401;BME280;18038;50.166;18.908;2023-04-01T10:10:45;96400.47;;;9.18;71.09
21401;BME280;18038;50.166;18.908;2023-04-01T10:18:32;96392.09;;;9.75;66.93
21401;BME280;18038;50.166;18.908;2023-04-01T10:26:19;96399.19;;;10.17;67.92
21401;BME280;18038;50.166;18.908;2023-04-01T10:30:49;96397.06;;;9.72;66.90
21401;BME280;18038;50.166;18.908;2023-04-01T10:34:41;96399.22;;;9.51;67.79
21401;BME280;18038;50.166;18.908;2023-04-01T10:38:48;96395.44;;;9.82;68.21
21401;BME280;18038;50.166;18.908;2023-04-01T10:42:49;96396.38;;;10.82;63.84
21401;BME280;18038;50.166;18.908;2023-04-01T10:46:54;96397.00;;;12.38;58.79
21401;BME280;18038;50.166;18.908;2023-04-01T10:54:42;96389.94;;;12.70;55.75
21401;BME280;18038;50.166;18.908;2023-04-01T11:03:17;96411.81;;;11.49;61.04
21401;BME280;18038;50.166;18.908;2023-04-01T11:11:53;96406.78;;;10.55;65.52
21401;BME280;18038;50.166;18.908;2023-04-01T11:15:37;96402.94;;;10.63;65.65
21401;BME280;18038;50.166;18.908;2023-04-01T11:19:56;96405.03;;;11.42;63.09
21401;BME280;18038;50.166;18.908;2023-04-01T11:27:54;96397.66;;;11.94;58.47
21401;BME280;18038;50.166;18.908;2023-04-01T11:31:29;96391.09;;;11.68;59.29
21401;BME280;18038;50.166;18.908;2023-04-01T11:39:15;96405.97;;;11.35;59.95
21401;BME280;18038;50.166;18.908;2023-04-01T11:42:45;96407.31;;;11.95;60.40
21401;BME280;18038;50.166;18.908;2023-04-01T11:46:31;96397.97;;;11.64;60.59
21401;BME280;18038;50.166;18.908;2023-04-01T11:50:03;96397.25;;;11.40;62.52
21401;BME280;18038;50.166;18.908;2023-04-01T11:53:37;96404.75;;;10.74;65.05
21401;BME280;18038;50.166;18.908;2023-04-01T11:57:13;96399.97;;;10.88;65.26
21401;BME280;18038;50.166;18.908;2023-04-01T12:01:07;96412.56;;;10.64;65.47
21401;BME280;18038;50.166;18.908;2023-04-01T12:04:47;96415.81;;;10.66;65.27
21401;BME280;18038;50.166;18.908;2023-04-01T12:08:30;96411.47;;;10.06;67.26
21401;BME280;18038;50.166;18.908;2023-04-01T12:11:58;96417.94;;;9.33;70.00
21401;BME280;18038;50.166;18.908;2023-04-01T12:15:28;96421.47;;;9.27;71.26
21401;BME280;18038;50.166;18.908;2023-04-01T12:18:52;96418.47;;;9.23;70.44
21401;BME280;18038;50.166;18.908;2023-04-01T12:22:28;96419.50;;;9.52;71.44
21401;BME280;18038;50.166;18.908;2023-04-01T12:26:15;96417.84;;;9.93;69.75
21401;BME280;18038;50.166;18.908;2023-04-01T12:33:52;96416.91;;;9.88;68.32
21401;BME280;18038;50.166;18.908;2023-04-01T12:37:13;96419.22;;;9.84;69.21
21401;BME280;18038;50.166;18.908;2023-04-01T12:40:56;96418.63;;;9.82;67.96
21401;BME280;18038;50.166;18.908;2023-04-01T12:44:30;96419.16;;;10.02;68.13
21401;BME280;18038;50.166;18.908;2023-04-01T12:48:08;96414.63;;;10.26;66.19
21401;BME280;18038;50.166;18.908;2023-04-01T12:51:52;96412.66;;;10.22;65.90
21401;BME280;18038;50.166;18.908;2023-04-01T12:55:34;96418.13;;;10.27;64.37
21401;BME280;18038;50.166;18.908;2023-04-01T12:59:22;96427.50;;;10.29;63.95
21401;BME280;18038;50.166;18.908;2023-04-01T13:02:57;96425.56;;;10.48;62.61
21401;BME280;18038;50.166;18.908;2023-04-01T13:06:32;96426.94;;;10.86;61.43
21401;BME280;18038;50.166;18.908;2023-04-01T13:10:01;96427.84;;;10.92;59.76
21401;BME280;18038;50.166;18.908;2023-04-01T13:13:44;96424.13;;;10.93;60.01
21401;BME280;18038;50.166;18.908;2023-04-01T13:17:22;96433.28;;;10.97;57.79
21401;BME280;18038;50.166;18.908;2023-04-01T13:20:44;96425.41;;;10.90;58.47
21401;BME280;18038;50.166;18.908;2023-04-01T13:24:06;96423.63;;;11.08;58.00
21401;BME280;18038;50.166;18.908;2023-04-01T13:27:30;96429.56;;;11.10;57.82
21401;BME280;18038;50.166;18.908;2023-04-01T13:30:49;96425.53;;;11.24;56.98
21401;BME280;18038;50.166;18.908;2023-04-01T13:34:21;96426.53;;;11.35;56.02
21401;BME280;18038;50.166;18.908;2023-04-01T13:37:55;96432.22;;;11.38;56.33
21401;BME280;18038;50.166;18.908;2023-04-01T13:41:29;96440.81;;;11.40;55.97
21401;BME280;18038;50.166;18.908;2023-04-01T13:44:49;96440.53;;;11.54;55.37
21401;BME280;18038;50.166;18.908;2023-04-01T13:48:29;96435.19;;;11.54;54.94
21401;BME280;18038;50.166;18.908;2023-04-01T13:52:26;96431.50;;;11.43;55.23
21401;BME280;18038;50.166;18.908;2023-04-01T13:56:00;96432.03;;;11.57;55.98
21401;BME280;18038;50.166;18.908;2023-04-01T13:59:41;96434.69;;;11.57;54.31
21401;BME280;18038;50.166;18.908;2023-04-01T14:03:42;96442.25;;;11.31;54.91
21401;BME280;18038;50.166;18.908;2023-04-01T14:07:10;96443.94;;;11.09;55.02
21401;BME280;18038;50.166;18.908;2023-04-01T14:10:36;96457.84;;;10.70;59.92
21401;BME280;18038;50.166;18.908;2023-04-01T14:14:02;96457.59;;;10.37;64.03
21401;BME280;18038;50.166;18.908;2023-04-01T14:17:50;96459.16;;;9.60;67.65
21401;BME280;18038;50.166;18.908;2023-04-01T14:21:27;96458.69;;;9.33;70.00
21401;BME280;18038;50.166;18.908;2023-04-01T14:25:03;96455.72;;;9.11;71.81
21401;BME280;18038;50.166;18.908;2023-04-01T14:28:35;96455.41;;;9.19;72.26
21401;BME280;18038;50.166;18.908;2023-04-01T14:32:02;96469.28;;;9.03;71.17
21401;BME280;18038;50.166;18.908;2023-04-01T14:35:35;96471.00;;;8.36;72.57
21401;BME280;18038;50.166;18.908;2023-04-01T14:38:55;96469.78;;;8.31;73.43
21401;BME280;18038;50.166;18.908;2023-04-01T14:42:45;96479.28;;;7.96;73.68
21401;BME280;18038;50.166;18.908;2023-04-01T14:46:17;96494.81;;;7.99;74.57
21401;BME280;18038;50.166;18.908;2023-04-01T14:49:40;96488.81;;;7.78;76.95
21401;BME280;18038;50.166;18.908;2023-04-01T14:52:57;96486.13;;;7.47;78.29
21401;BME280;18038;50.166;18.908;2023-04-01T14:56:06;96478.81;;;7.35;78.66
21401;BME280;18038;50.166;18.908;2023-04-01T14:59:27;96478.00;;;7.35;79.31
21401;BME280;18038;50.166;18.908;2023-04-01T15:02:55;96492.22;;;7.54;79.05
21401;BME280;18038;50.166;18.908;2023-04-01T15:06:30;96484.19;;;7.67;79.17
21401;BME280;18038;50.166;18.908;2023-04-01T15:09:59;96488.44;;;7.75;78.23
21401;BME280;18038;50.166;18.908;2023-04-01T15:13:44;96485.06;;;7.86;78.18
21401;BME280;18038;50.166;18.908;2023-04-01T15:17:37;96487.16;;;8.09;77.36
21401;BME280;18038;50.166;18.908;2023-04-01T15:21:16;96496.22;;;8.26;76.86
21401;BME280;18038;50.166;18.908;2023-04-01T15:24:41;96502.63;;;8.44;76.56
21401;BME280;18038;50.166;18.908;2023-04-01T15:28:02;96500.50;;;8.52;75.20
21401;BME280;18038;50.166;18.908;2023-04-01T15:31:25;96501.19;;;8.66;74.74
21401;BME280;18038;50.166;18.908;2023-04-01T15:34:49;96510.03;;;8.85;74.76
21401;BME280;18038;50.166;18.908;2023-04-01T15:38:14;96512.25;;;8.88;74.68
21401;BME280;18038;50.166;18.908;2023-04-01T15:41:38;96519.59;;;8.93;74.33
21401;BME280;18038;50.166;18.908;2023-04-01T15:45:17;96520.91;;;8.84;73.51
21401;BME280;18038;50.166;18.908;2023-04-01T15:48:56;96529.94;;;8.83;74.79
21401;BME280;18038;50.166;18.908;2023-04-01T15:52:21;96532.06;;;8.92;74.84
21401;BME280;18038;50.166;18.908;2023-04-01T15:55:39;96537.84;;;8.89;73.91
21401;BME280;18038;50.166;18.908;2023-04-01T15:59:10;96544.84;;;8.84;73.67
21401;BME280;18038;50.166;18.908;2023-04-01T16:02:34;96546.88;;;8.63;72.69
21401;BME280;18038;50.166;18.908;2023-04-01T16:09:59;96536.34;;;8.25;73.41
21401;BME280;18038;50.166;18.908;2023-04-01T16:13:30;96552.41;;;8.37;73.35
21401;BME280;18038;50.166;18.908;2023-04-01T16:17:07;96548.56;;;8.32;73.97
21401;BME280;18038;50.166;18.908;2023-04-01T16:21:04;96548.06;;;8.17;73.39
21401;BME280;18038;50.166;18.908;2023-04-01T16:24:23;96549.19;;;8.03;73.76
21401;BME280;18038;50.166;18.908;2023-04-01T16:27:49;96550.22;;;8.02;73.79
21401;BME280;18038;50.166;18.908;2023-04-01T16:31:08;96533.38;;;8.08;73.60
21401;BME280;18038;50.166;18.908;2023-04-01T16:34:30;96542.75;;;8.17;73.96
21401;BME280;18038;50.166;18.908;2023-04-01T16:37:49;96550.47;;;8.25;74.21
21401;BME280;18038;50.166;18.908;2023-04-01T16:41:11;96544.81;;;8.15;74.05
21401;BME280;18038;50.166;18.908;2023-04-01T16:44:26;96565.97;;;8.28;73.67
21401;BME280;18038;50.166;18.908;2023-04-01T16:47:41;96569.53;;;8.16;72.89
21401;BME280;18038;50.166;18.908;2023-04-01T16:50:59;96575.44;;;7.93;73.13
21401;BME280;18038;50.166;18.908;2023-04-01T16:54:17;96577.06;;;7.94;73.47
21401;BME280;18038;50.166;18.908;2023-04-01T16:57:46;96586.47;;;7.89;74.09
21401;BME280;18038;50.166;18.908;2023-04-01T17:01:05;96595.47;;;7.95;73.37
21401;BME280;18038;50.166;18.908;2023-04-01T17:04:25;96590.59;;;7.85;73.29
21401;BME280;18038;50.166;18.908;2023-04-01T17:07:47;96601.34;;;7.97;72.78
21401;BME280;18038;50.166;18.908;2023-04-01T17:11:12;96606.47;;;7.99;73.10
21401;BME280;18038;50.166;18.908;2023-04-01T17:14:30;96609.00;;;7.87;73.49
21401;BME280;18038;50.166;18.908;2023-04-01T17:17:53;96620.88;;;7.84;74.05
21401;BME280;18038;50.166;18.908;2023-04-01T17:21:10;96628.84;;;7.84;74.04
21401;BME280;18038;50.166;18.908;2023-04-01T17:24:38;96634.00;;;7.73;74.74
21401;BME280;18038;50.166;18.908;2023-04-01T17:28:07;96638.09;;;7.69;75.16
21401;BME280;18038;50.166;18.908;2023-04-01T17:31:36;96638.31;;;7.60;75.46
21401;BME280;18038;50.166;18.908;2023-04-01T17:35:04;96635.69;;;7.54;76.44
21401;BME280;18038;50.166;18.908;2023-04-01T17:38:27;96641.63;;;7.56;76.46
21401;BME280;18038;50.166;18.908;2023-04-01T17:42:04;96649.78;;;7.61;76.22
21401;BME280;18038;50.166;18.908;2023-04-01T17:45:23;96650.81;;;7.47;77.12
21401;BME280;18038;50.166;18.908;2023-04-01T17:48:44;96655.34;;;7.26;77.83
21401;BME280;18038;50.166;18.908;2023-04-01T17:52:09;96661.28;;;7.08;78.51
21401;BME280;18038;50.166;18.908;2023-04-01T17:59:19;96672.09;;;6.80;80.12
21401;BME280;18038;50.166;18.908;2023-04-01T18:02:42;96675.38;;;6.69;80.32
21401;BME280;18038;50.166;18.908;2023-04-01T18:06:14;96674.75;;;6.53;80.73
21401;BME280;18038;50.166;18.908;2023-04-01T18:09:40;96685.53;;;6.45;81.73
21401;BME280;18038;50.166;18.908;2023-04-01T18:13:28;96683.47;;;6.41;82.28
21401;BME280;18038;50.166;18.908;2023-04-01T18:17:12;96683.69;;;6.39;82.72
21401;BME280;18038;50.166;18.908;2023-04-01T18:20:42;96695.31;;;6.31;82.90
21401;BME280;18038;50.166;18.908;2023-04-01T18:24:05;96691.38;;;6.07;83.03
21401;BME280;18038;50.166;18.908;2023-04-01T18:27:29;96695.22;;;6.05;83.99
21401;BME280;18038;50.166;18.908;2023-04-01T18:30:54;96696.41;;;5.96;84.27
21401;BME280;18038;50.166;18.908;2023-04-01T18:34:12;96694.34;;;5.91;84.39
21401;BME280;18038;50.166;18.908;2023-04-01T18:37:42;96695.41;;;5.97;84.47
21401;BME280;18038;50.166;18.908;2023-04-01T18:41:05;96706.63;;;6.05;84.09
21401;BME280;18038;50.166;18.908;2023-04-01T18:44:30;96706.25;;;6.08;83.56
21401;BME280;18038;50.166;18.908;2023-04-01T18:47:58;96706.47;;;6.13;83.86
21401;BME280;18038;50.166;18.908;2023-04-01T18:51:20;96707.13;;;6.29;83.13
21401;BME280;18038;50.166;18.908;2023-04-01T18:54:43;96713.88;;;6.31;83.26
21401;BME280;18038;50.166;18.908;2023-04-01T18:58:20;96710.00;;;6.34;82.86
21401;BME280;18038;50.166;18.908;2023-04-01T19:01:48;96718.72;;;6.28;82.89
21401;BME280;18038;50.166;18.908;2023-04-01T19:05:29;96722.03;;;6.37;82.94
21401;BME280;18038;50.166;18.908;2023-04-01T19:08:40;96731.00;;;6.35;83.02
21401;BME280;18038;50.166;18.908;2023-04-01T19:12:13;96729.56;;;6.33;82.98
21401;BME280;18038;50.166;18.908;2023-04-01T19:15:41;96734.88;;;6.33;83.42